sensor_id;sensor_type;location;lat;lon;timestamp;temperature;humidity
44747;DHT22;30472;49.490;10.972;2023-05-24T00:00:39;10.30;99.90
44747;DHT22;30472;49.490;10.972;2023-05-24T00:03:06;10.40;99.90
44747;DHT22;30472;49.490;10.972;2023-05-24T00:05:32;10.40;99.90
44747;DHT22;30472;49.490;10.972;2023-05-24T00:07:58;10.40;99.90
44747;DHT22;30472;49.490;10.972;2023-05-24T00:10:24;10.50;99.90
44747;DHT22;30472;49.490;10.972;2023-05-24T00:12:50;10.40;99.90
44747;DHT22;30472;49.490;10.972;2023-05-24T00:15:16;10.40;99.90
44747;DHT22;30472;49.490;10.972;2023-05-24T00:17:41;10.40;99.90
44747;DHT22;30472;49.490;10.972;2023-05-24T00:20:09;10.40;99.90
44747;DHT22;30472;49.490;10.972;2023-05-24T00:22:36;10.30;99.90
44747;DHT22;30472;49.490;10.972;2023-05-24T00:25:02;10.30;99.90
44747;DHT22;30472;49.490;10.972;2023-05-24T00:27:28;10.30;99.90
44747;DHT22;30472;49.490;10.972;2023-05-24T00:29:53;10.30;99.90
44747;DHT22;30472;49.490;10.972;2023-05-24T00:32:19;10.30;99.90
44747;DHT22;30472;49.490;10.972;2023-05-24T00:34:44;10.30;99.90
44747;DHT22;30472;49.490;10.972;2023-05-24T00:37:10;10.30;99.90
44747;DHT22;30472;49.490;10.972;2023-05-24T00:39:37;10.30;99.90
44747;DHT22;30472;49.490;10.972;2023-05-24T00:42:03;10.30;99.90
44747;DHT22;30472;49.490;10.972;2023-05-24T00:44:29;10.30;99.90
44747;DHT22;30472;49.490;10.972;2023-05-24T00:46:55;10.20;99.90
44747;DHT22;30472;49.490;10.972;2023-05-24T00:49:22;10.20;99.90
44747;DHT22;30472;49.490;10.972;2023-05-24T00:51:48;10.20;99.90
44747;DHT22;30472;49.490;10.972;2023-05-24T00:54:14;10.20;99.90
44747;DHT22;30472;49.490;10.972;2023-05-24T00:56:41;10.20;99.90
44747;DHT22;30472;49.490;10.972;2023-05-24T00:59:07;10.20;99.90
44747;DHT22;30472;49.490;10.972;2023-05-24T01:01:33;10.30;99.90
44747;DHT22;30472;49.490;10.972;2023-05-24T01:03:59;10.30;99.90
44747;DHT22;30472;49.490;10.972;2023-05-24T01:06:24;10.30;99.90
44747;DHT22;30472;49.490;10.972;2023-05-24T01:11:56;10.30;99.90
44747;DHT22;30472;49.490;10.972;2023-05-24T01:14:52;10.30;99.90
44747;DHT22;30472;49.490;10.972;2023-05-24T01:17:24;10.30;99.90
44747;DHT22;30472;49.490;10.972;2023-05-24T01:20:06;10.20;99.90
44747;DHT22;30472;49.490;10.972;2023-05-24T01:23:02;10.30;99.90
44747;DHT22;30472;49.490;10.972;2023-05-24T01:25:45;10.30;99.90
44747;DHT22;30472;49.490;10.972;2023-05-24T01:28:16;10.30;99.90
44747;DHT22;30472;49.490;10.972;2023-05-24T01:30:41;10.20;99.90
44747;DHT22;30472;49.490;10.972;2023-05-24T01:33:07;10.20;99.90
44747;DHT22;30472;49.490;10.972;2023-05-24T01:35:33;10.20;99.90
44747;DHT22;30472;49.490;10.972;2023-05-24T01:38:05;10.20;99.90
44747;DHT22;30472;49.490;10.972;2023-05-24T01:40:31;10.20;99.90
44747;DHT22;30472;49.490;10.972;2023-05-24T01:43:04;10.20;99.90
44747;DHT22;30472;49.490;10.972;2023-05-24T01:45:47;10.20;99.90
44747;DHT22;30472;49.490;10.972;2023-05-24T01:50:57;10.20;99.90
44747;DHT22;30472;49.490;10.972;2023-05-24T01:53:25;10.10;99.90
44747;DHT22;30472;49.490;10.972;2023-05-24T01:55:55;10.10;99.90
44747;DHT22;30472;49.490;10.972;2023-05-24T01:58:22;10.10;99.90
44747;DHT22;30472;49.490;10.972;2023-05-24T02:00:49;10.10;99.90
44747;DHT22;30472;49.490;10.972;2023-05-24T02:03:16;10.10;99.90
44747;DHT22;30472;49.490;10.972;2023-05-24T02:05:42;10.10;99.90
44747;DHT22;30472;49.490;10.972;2023-05-24T02:08:09;10.10;99.90
44747;DHT22;30472;49.490;10.972;2023-05-24T02:10:34;10.00;99.90
44747;DHT22;30472;49.490;10.972;2023-05-24T02:13:03;10.00;99.90
44747;DHT22;30472;49.490;10.972;2023-05-24T02:15:29;10.00;99.90
44747;DHT22;30472;49.490;10.972;2023-05-24T02:17:55;10.00;99.90
44747;DHT22;30472;49.490;10.972;2023-05-24T02:20:20;10.00;99.90
44747;DHT22;30472;49.490;10.972;2023-05-24T02:22:49;10.00;99.90
44747;DHT22;30472;49.490;10.972;2023-05-24T02:25:15;10.00;99.90
44747;DHT22;30472;49.490;10.972;2023-05-24T02:27:41;10.10;99.90
44747;DHT22;30472;49.490;10.972;2023-05-24T02:30:07;10.10;99.90
44747;DHT22;30472;49.490;10.972;2023-05-24T02:32:33;10.00;99.90
44747;DHT22;30472;49.490;10.972;2023-05-24T02:35:02;10.10;99.90
44747;DHT22;30472;49.490;10.972;2023-05-24T02:37:27;10.00;99.90
44747;DHT22;30472;49.490;10.972;2023-05-24T02:39:53;10.10;99.90
44747;DHT22;30472;49.490;10.972;2023-05-24T02:42:18;10.00;99.90
44747;DHT22;30472;49.490;10.972;2023-05-24T02:44:44;10.00;99.90
44747;DHT22;30472;49.490;10.972;2023-05-24T02:47:14;10.00;99.90
44747;DHT22;30472;49.490;10.972;2023-05-24T02:49:40;10.00;99.90
44747;DHT22;30472;49.490;10.972;2023-05-24T02:52:05;10.00;99.90
44747;DHT22;30472;49.490;10.972;2023-05-24T02:54:31;10.00;99.90
44747;DHT22;30472;49.490;10.972;2023-05-24T02:56:57;10.00;99.90
44747;DHT22;30472;49.490;10.972;2023-05-24T02:59:23;10.00;99.90
44747;DHT22;30472;49.490;10.972;2023-05-24T03:01:49;10.00;99.90
44747;DHT22;30472;49.490;10.972;2023-05-24T03:04:15;10.00;99.90
44747;DHT22;30472;49.490;10.972;2023-05-24T03:06:40;10.00;99.90
44747;DHT22;30472;49.490;10.972;2023-05-24T03:09:06;9.90;99.90
44747;DHT22;30472;49.490;10.972;2023-05-24T03:11:31;9.90;99.90
44747;DHT22;30472;49.490;10.972;2023-05-24T03:13:57;9.90;99.90
44747;DHT22;30472;49.490;10.972;2023-05-24T03:16:23;9.90;99.90
44747;DHT22;30472;49.490;10.972;2023-05-24T03:18:49;9.90;99.90
44747;DHT22;30472;49.490;10.972;2023-05-24T03:21:16;9.90;99.90
44747;DHT22;30472;49.490;10.972;2023-05-24T03:23:42;9.90;99.90
44747;DHT22;30472;49.490;10.972;2023-05-24T03:26:07;9.90;99.90
44747;DHT22;30472;49.490;10.972;2023-05-24T03:28:33;9.90;99.90
44747;DHT22;30472;49.490;10.972;2023-05-24T03:30:58;9.80;99.90
44747;DHT22;30472;49.490;10.972;2023-05-24T03:33:24;9.80;99.90
44747;DHT22;30472;49.490;10.972;2023-05-24T03:35:50;9.80;99.90
44747;DHT22;30472;49.490;10.972;2023-05-24T03:38:15;9.80;99.90
44747;DHT22;30472;49.490;10.972;2023-05-24T03:40:41;9.80;99.90
44747;DHT22;30472;49.490;10.972;2023-05-24T03:43:06;9.80;99.90
44747;DHT22;30472;49.490;10.972;2023-05-24T03:45:32;9.80;99.90
44747;DHT22;30472;49.490;10.972;2023-05-24T03:47:57;9.80;99.90
44747;DHT22;30472;49.490;10.972;2023-05-24T03:50:23;9.80;99.90
44747;DHT22;30472;49.490;10.972;2023-05-24T03:52:48;9.80;99.90
44747;DHT22;30472;49.490;10.972;2023-05-24T03:55:14;9.80;99.90
44747;DHT22;30472;49.490;10.972;2023-05-24T03:57:40;9.80;99.90
44747;DHT22;30472;49.490;10.972;2023-05-24T04:00:07;9.80;99.90
44747;DHT22;30472;49.490;10.972;2023-05-24T04:02:34;9.80;99.90
44747;DHT22;30472;49.490;10.972;2023-05-24T04:05:03;9.80;99.90
44747;DHT22;30472;49.490;10.972;2023-05-24T04:07:28;9.80;99.90
44747;DHT22;30472;49.490;10.972;2023-05-24T04:09:58;9.80;99.90
44747;DHT22;30472;49.490;10.972;2023-05-24T04:12:23;9.80;99.90
44747;DHT22;30472;49.490;10.972;2023-05-24T04:14:49;9.90;99.90
44747;DHT22;30472;49.490;10.972;2023-05-24T04:17:16;9.90;99.90
44747;DHT22;30472;49.490;10.972;2023-05-24T04:19:42;9.90;99.90
44747;DHT22;30472;49.490;10.972;2023-05-24T04:22:08;10.00;99.90
44747;DHT22;30472;49.490;10.972;2023-05-24T04:24:33;10.00;99.90
44747;DHT22;30472;49.490;10.972;2023-05-24T04:26:59;10.00;99.90
44747;DHT22;30472;49.490;10.972;2023-05-24T04:29:24;10.00;99.90
44747;DHT22;30472;49.490;10.972;2023-05-24T04:31:51;10.10;99.90
44747;DHT22;30472;49.490;10.972;2023-05-24T04:34:16;10.10;99.90
44747;DHT22;30472;49.490;10.972;2023-05-24T04:36:42;10.00;99.90
44747;DHT22;30472;49.490;10.972;2023-05-24T04:39:08;10.00;99.90
44747;DHT22;30472;49.490;10.972;2023-05-24T04:41:33;10.10;99.90
44747;DHT22;30472;49.490;10.972;2023-05-24T04:44:03;10.10;99.90
44747;DHT22;30472;49.490;10.972;2023-05-24T04:46:28;10.20;99.90
44747;DHT22;30472;49.490;10.972;2023-05-24T04:48:55;10.30;99.90
44747;DHT22;30472;49.490;10.972;2023-05-24T04:51:21;10.40;99.90
44747;DHT22;30472;49.490;10.972;2023-05-24T04:53:47;10.40;99.90
44747;DHT22;30472;49.490;10.972;2023-05-24T04:56:12;10.40;99.90
44747;DHT22;30472;49.490;10.972;2023-05-24T04:58:39;10.40;99.90
44747;DHT22;30472;49.490;10.972;2023-05-24T05:01:05;10.50;99.90
44747;DHT22;30472;49.490;10.972;2023-05-24T05:03:31;10.60;99.90
44747;DHT22;30472;49.490;10.972;2023-05-24T05:05:57;10.60;99.90
44747;DHT22;30472;49.490;10.972;2023-05-24T05:08:22;10.60;99.90
44747;DHT22;30472;49.490;10.972;2023-05-24T05:10:48;10.60;99.90
44747;DHT22;30472;49.490;10.972;2023-05-24T05:13:13;10.60;99.90
44747;DHT22;30472;49.490;10.972;2023-05-24T05:15:39;10.60;99.90
44747;DHT22;30472;49.490;10.972;2023-05-24T05:18:04;10.60;99.90
44747;DHT22;30472;49.490;10.972;2023-05-24T05:20:30;10.70;99.90
44747;DHT22;30472;49.490;10.972;2023-05-24T05:22:55;10.70;99.90
44747;DHT22;30472;49.490;10.972;2023-05-24T05:25:21;10.70;99.90
44747;DHT22;30472;49.490;10.972;2023-05-24T05:27:47;10.80;99.90
44747;DHT22;30472;49.490;10.972;2023-05-24T05:30:12;10.70;99.90
44747;DHT22;30472;49.490;10.972;2023-05-24T05:32:38;10.70;99.90
44747;DHT22;30472;49.490;10.972;2023-05-24T05:35:04;10.70;99.90
44747;DHT22;30472;49.490;10.972;2023-05-24T05:37:30;10.60;99.90
44747;DHT22;30472;49.490;10.972;2023-05-24T05:39:56;10.70;99.90
44747;DHT22;30472;49.490;10.972;2023-05-24T05:42:21;10.80;99.90
44747;DHT22;30472;49.490;10.972;2023-05-24T05:44:47;10.80;99.90
44747;DHT22;30472;49.490;10.972;2023-05-24T05:47:13;10.80;99.90
44747;DHT22;30472;49.490;10.972;2023-05-24T05:49:38;10.70;99.90
44747;DHT22;30472;49.490;10.972;2023-05-24T05:52:04;10.70;99.90
44747;DHT22;30472;49.490;10.972;2023-05-24T05:54:30;10.80;99.90
44747;DHT22;30472;49.490;10.972;2023-05-24T05:56:56;10.80;99.90
44747;DHT22;30472;49.490;10.972;2023-05-24T05:59:22;10.80;99.90
44747;DHT22;30472;49.490;10.972;2023-05-24T06:01:48;10.80;99.90
44747;DHT22;30472;49.490;10.972;2023-05-24T06:04:17;10.70;99.90
44747;DHT22;30472;49.490;10.972;2023-05-24T06:06:42;10.70;99.90
44747;DHT22;30472;49.490;10.972;2023-05-24T06:09:18;10.80;99.90
44747;DHT22;30472;49.490;10.972;2023-05-24T06:11:44;10.90;99.90
44747;DHT22;30472;49.490;10.972;2023-05-24T06:14:10;10.80;99.90
44747;DHT22;30472;49.490;10.972;2023-05-24T06:16:37;10.90;99.90
44747;DHT22;30472;49.490;10.972;2023-05-24T06:19:06;10.80;99.90
44747;DHT22;30472;49.490;10.972;2023-05-24T06:21:32;10.70;99.90
44747;DHT22;30472;49.490;10.972;2023-05-24T06:23:58;10.80;99.90
44747;DHT22;30472;49.490;10.972;2023-05-24T06:26:24;10.90;99.90
44747;DHT22;30472;49.490;10.972;2023-05-24T06:28:51;10.90;99.90
44747;DHT22;30472;49.490;10.972;2023-05-24T06:31:16;11.00;99.90
44747;DHT22;30472;49.490;10.972;2023-05-24T06:33:42;11.20;99.90
44747;DHT22;30472;49.490;10.972;2023-05-24T06:36:08;11.20;99.90
44747;DHT22;30472;49.490;10.972;2023-05-24T06:38:34;11.20;99.90
44747;DHT22;30472;49.490;10.972;2023-05-24T06:41:00;11.10;99.90
44747;DHT22;30472;49.490;10.972;2023-05-24T06:43:26;11.10;99.90
44747;DHT22;30472;49.490;10.972;2023-05-24T06:45:51;11.10;99.90
44747;DHT22;30472;49.490;10.972;2023-05-24T06:48:17;11.10;99.90
44747;DHT22;30472;49.490;10.972;2023-05-24T06:50:42;11.00;99.90
44747;DHT22;30472;49.490;10.972;2023-05-24T06:53:09;11.10;99.90
44747;DHT22;30472;49.490;10.972;2023-05-24T06:55:35;11.20;99.90
44747;DHT22;30472;49.490;10.972;2023-05-24T06:58:00;11.20;99.90
44747;DHT22;30472;49.490;10.972;2023-05-24T07:00:26;11.40;99.90
44747;DHT22;30472;49.490;10.972;2023-05-24T07:02:52;11.40;99.90
44747;DHT22;30472;49.490;10.972;2023-05-24T07:05:17;11.40;99.90
44747;DHT22;30472;49.490;10.972;2023-05-24T07:07:43;11.30;99.90
44747;DHT22;30472;49.490;10.972;2023-05-24T07:10:10;11.60;99.90
44747;DHT22;30472;49.490;10.972;2023-05-24T07:12:39;11.70;99.90
44747;DHT22;30472;49.490;10.972;2023-05-24T07:15:05;11.80;99.90
44747;DHT22;30472;49.490;10.972;2023-05-24T07:17:31;11.80;99.90
44747;DHT22;30472;49.490;10.972;2023-05-24T07:19:58;11.90;99.90
44747;DHT22;30472;49.490;10.972;2023-05-24T07:22:23;11.90;99.90
44747;DHT22;30472;49.490;10.972;2023-05-24T07:24:50;11.90;99.90
44747;DHT22;30472;49.490;10.972;2023-05-24T07:27:15;11.70;99.90
44747;DHT22;30472;49.490;10.972;2023-05-24T07:29:41;11.70;99.90
44747;DHT22;30472;49.490;10.972;2023-05-24T07:32:07;11.80;99.90
44747;DHT22;30472;49.490;10.972;2023-05-24T07:34:33;12.00;99.90
44747;DHT22;30472;49.490;10.972;2023-05-24T07:36:59;12.10;99.90
44747;DHT22;30472;49.490;10.972;2023-05-24T07:39:26;12.00;99.90
44747;DHT22;30472;49.490;10.972;2023-05-24T07:41:55;12.20;99.90
44747;DHT22;30472;49.490;10.972;2023-05-24T07:44:20;12.00;99.90
44747;DHT22;30472;49.490;10.972;2023-05-24T07:46:46;12.00;99.90
44747;DHT22;30472;49.490;10.972;2023-05-24T07:49:12;12.00;99.90
44747;DHT22;30472;49.490;10.972;2023-05-24T07:51:37;11.70;99.90
44747;DHT22;30472;49.490;10.972;2023-05-24T07:54:04;11.70;99.90
44747;DHT22;30472;49.490;10.972;2023-05-24T07:56:29;11.80;99.90
44747;DHT22;30472;49.490;10.972;2023-05-24T07:58:56;11.60;99.90
44747;DHT22;30472;49.490;10.972;2023-05-24T08:01:28;11.60;99.90
44747;DHT22;30472;49.490;10.972;2023-05-24T08:03:53;11.60;99.90
44747;DHT22;30472;49.490;10.972;2023-05-24T08:06:20;11.70;99.90
44747;DHT22;30472;49.490;10.972;2023-05-24T08:08:47;11.60;99.90
44747;DHT22;30472;49.490;10.972;2023-05-24T08:11:12;11.70;99.90
44747;DHT22;30472;49.490;10.972;2023-05-24T08:13:38;11.60;99.90
44747;DHT22;30472;49.490;10.972;2023-05-24T08:16:03;11.60;99.90
44747;DHT22;30472;49.490;10.972;2023-05-24T08:18:29;11.70;99.90
44747;DHT22;30472;49.490;10.972;2023-05-24T08:20:55;11.70;99.90
44747;DHT22;30472;49.490;10.972;2023-05-24T08:23:20;11.50;99.90
44747;DHT22;30472;49.490;10.972;2023-05-24T08:25:46;11.40;99.90
44747;DHT22;30472;49.490;10.972;2023-05-24T08:28:12;11.40;99.90
44747;DHT22;30472;49.490;10.972;2023-05-24T08:30:38;11.40;99.90
44747;DHT22;30472;49.490;10.972;2023-05-24T08:33:03;11.40;99.90
44747;DHT22;30472;49.490;10.972;2023-05-24T08:35:29;11.50;99.90
44747;DHT22;30472;49.490;10.972;2023-05-24T08:37:54;11.60;99.90
44747;DHT22;30472;49.490;10.972;2023-05-24T08:40:20;11.30;99.90
44747;DHT22;30472;49.490;10.972;2023-05-24T08:42:49;11.40;99.90
44747;DHT22;30472;49.490;10.972;2023-05-24T08:45:16;11.40;99.90
44747;DHT22;30472;49.490;10.972;2023-05-24T08:47:42;11.50;99.90
44747;DHT22;30472;49.490;10.972;2023-05-24T08:50:09;11.50;99.90
44747;DHT22;30472;49.490;10.972;2023-05-24T08:52:35;11.40;99.90
44747;DHT22;30472;49.490;10.972;2023-05-24T08:55:03;11.40;99.90
44747;DHT22;30472;49.490;10.972;2023-05-24T08:57:30;11.30;99.90
44747;DHT22;30472;49.490;10.972;2023-05-24T08:59:56;11.50;99.90
44747;DHT22;30472;49.490;10.972;2023-05-24T09:02:23;11.50;99.90
44747;DHT22;30472;49.490;10.972;2023-05-24T09:04:51;11.30;99.90
44747;DHT22;30472;49.490;10.972;2023-05-24T09:07:18;11.30;99.90
44747;DHT22;30472;49.490;10.972;2023-05-24T09:09:49;11.20;99.90
44747;DHT22;30472;49.490;10.972;2023-05-24T09:12:17;11.30;99.90
44747;DHT22;30472;49.490;10.972;2023-05-24T09:14:45;11.30;99.90
44747;DHT22;30472;49.490;10.972;2023-05-24T09:17:11;11.40;99.90
44747;DHT22;30472;49.490;10.972;2023-05-24T09:19:43;11.40;99.90
44747;DHT22;30472;49.490;10.972;2023-05-24T09:22:14;11.40;99.90
44747;DHT22;30472;49.490;10.972;2023-05-24T09:24:42;11.50;99.90
44747;DHT22;30472;49.490;10.972;2023-05-24T09:27:08;11.30;99.90
44747;DHT22;30472;49.490;10.972;2023-05-24T09:29:37;11.30;99.90
44747;DHT22;30472;49.490;10.972;2023-05-24T09:32:06;11.30;99.90
44747;DHT22;30472;49.490;10.972;2023-05-24T09:34:39;11.40;99.90
44747;DHT22;30472;49.490;10.972;2023-05-24T09:37:08;11.60;99.90
44747;DHT22;30472;49.490;10.972;2023-05-24T09:39:41;11.70;99.90
44747;DHT22;30472;49.490;10.972;2023-05-24T09:42:07;11.80;99.90
44747;DHT22;30472;49.490;10.972;2023-05-24T09:44:32;12.00;99.90
44747;DHT22;30472;49.490;10.972;2023-05-24T09:47:02;11.80;99.90
44747;DHT22;30472;49.490;10.972;2023-05-24T09:49:31;12.10;99.90
44747;DHT22;30472;49.490;10.972;2023-05-24T09:51:57;12.00;99.90
44747;DHT22;30472;49.490;10.972;2023-05-24T09:54:25;11.90;99.90
44747;DHT22;30472;49.490;10.972;2023-05-24T09:56:51;11.90;99.90
44747;DHT22;30472;49.490;10.972;2023-05-24T09:59:17;12.00;99.90
44747;DHT22;30472;49.490;10.972;2023-05-24T10:01:44;12.10;99.90
44747;DHT22;30472;49.490;10.972;2023-05-24T10:04:10;12.10;99.90
44747;DHT22;30472;49.490;10.972;2023-05-24T10:06:39;12.40;99.90
44747;DHT22;30472;49.490;10.972;2023-05-24T10:09:07;12.70;99.90
44747;DHT22;30472;49.490;10.972;2023-05-24T10:11:37;13.30;99.90
44747;DHT22;30472;49.490;10.972;2023-05-24T10:14:08;13.10;99.90
44747;DHT22;30472;49.490;10.972;2023-05-24T10:16:34;13.40;99.90
44747;DHT22;30472;49.490;10.972;2023-05-24T10:19:02;13.90;99.90
44747;DHT22;30472;49.490;10.972;2023-05-24T10:21:30;14.20;99.90
44747;DHT22;30472;49.490;10.972;2023-05-24T10:23:58;14.20;99.90
44747;DHT22;30472;49.490;10.972;2023-05-24T10:26:28;14.20;99.90
44747;DHT22;30472;49.490;10.972;2023-05-24T10:29:00;14.20;99.90
44747;DHT22;30472;49.490;10.972;2023-05-24T10:31:36;14.60;99.90
44747;DHT22;30472;49.490;10.972;2023-05-24T10:34:04;14.20;99.90
44747;DHT22;30472;49.490;10.972;2023-05-24T10:36:30;14.50;99.90
44747;DHT22;30472;49.490;10.972;2023-05-24T10:38:57;14.60;99.90
44747;DHT22;30472;49.490;10.972;2023-05-24T10:41:25;14.50;99.90
44747;DHT22;30472;49.490;10.972;2023-05-24T10:43:52;14.30;99.90
44747;DHT22;30472;49.490;10.972;2023-05-24T10:46:17;14.40;99.90
44747;DHT22;30472;49.490;10.972;2023-05-24T10:48:58;14.50;99.90
44747;DHT22;30472;49.490;10.972;2023-05-24T10:51:36;14.60;99.90
44747;DHT22;30472;49.490;10.972;2023-05-24T10:54:14;14.50;99.90
44747;DHT22;30472;49.490;10.972;2023-05-24T10:56:43;14.80;99.90
44747;DHT22;30472;49.490;10.972;2023-05-24T10:59:28;14.90;99.90
44747;DHT22;30472;49.490;10.972;2023-05-24T11:01:56;15.00;99.90
44747;DHT22;30472;49.490;10.972;2023-05-24T11:04:22;14.90;99.90
44747;DHT22;30472;49.490;10.972;2023-05-24T11:07:01;15.00;99.90
44747;DHT22;30472;49.490;10.972;2023-05-24T11:09:28;15.20;99.90
44747;DHT22;30472;49.490;10.972;2023-05-24T11:11:57;14.90;99.90
44747;DHT22;30472;49.490;10.972;2023-05-24T11:14:27;14.80;99.90
44747;DHT22;30472;49.490;10.972;2023-05-24T11:16:54;14.70;99.90
44747;DHT22;30472;49.490;10.972;2023-05-24T11:19:45;14.60;99.90
44747;DHT22;30472;49.490;10.972;2023-05-24T11:22:13;14.90;99.90
44747;DHT22;30472;49.490;10.972;2023-05-24T11:24:40;15.10;99.90
44747;DHT22;30472;49.490;10.972;2023-05-24T11:27:06;14.90;99.90
44747;DHT22;30472;49.490;10.972;2023-05-24T11:29:38;14.80;99.90
44747;DHT22;30472;49.490;10.972;2023-05-24T11:32:04;14.80;99.90
44747;DHT22;30472;49.490;10.972;2023-05-24T11:34:30;15.00;99.90
44747;DHT22;30472;49.490;10.972;2023-05-24T11:36:57;15.30;99.90
44747;DHT22;30472;49.490;10.972;2023-05-24T11:39:27;15.80;99.90
44747;DHT22;30472;49.490;10.972;2023-05-24T11:41:53;16.40;99.90
44747;DHT22;30472;49.490;10.972;2023-05-24T11:44:18;16.80;99.90
44747;DHT22;30472;49.490;10.972;2023-05-24T11:46:45;16.10;99.90
44747;DHT22;30472;49.490;10.972;2023-05-24T11:49:15;16.50;99.90
44747;DHT22;30472;49.490;10.972;2023-05-24T11:51:41;17.20;99.90
44747;DHT22;30472;49.490;10.972;2023-05-24T11:54:07;17.40;99.90
44747;DHT22;30472;49.490;10.972;2023-05-24T11:56:32;17.20;99.90
44747;DHT22;30472;49.490;10.972;2023-05-24T11:59:13;16.80;99.90
44747;DHT22;30472;49.490;10.972;2023-05-24T12:01:40;16.90;99.90
44747;DHT22;30472;49.490;10.972;2023-05-24T12:04:06;16.60;99.90
44747;DHT22;30472;49.490;10.972;2023-05-24T12:06:35;16.90;99.90
44747;DHT22;30472;49.490;10.972;2023-05-24T12:09:01;16.90;99.90
44747;DHT22;30472;49.490;10.972;2023-05-24T12:11:30;16.90;99.90
44747;DHT22;30472;49.490;10.972;2023-05-24T12:13:57;16.80;99.90
44747;DHT22;30472;49.490;10.972;2023-05-24T12:16:22;16.40;99.90
44747;DHT22;30472;49.490;10.972;2023-05-24T12:18:50;16.60;99.90
44747;DHT22;30472;49.490;10.972;2023-05-24T12:21:16;16.80;99.90
44747;DHT22;30472;49.490;10.972;2023-05-24T12:23:46;16.70;99.90
44747;DHT22;30472;49.490;10.972;2023-05-24T12:26:12;17.10;99.90
44747;DHT22;30472;49.490;10.972;2023-05-24T12:28:39;17.50;99.90
44747;DHT22;30472;49.490;10.972;2023-05-24T12:31:05;17.80;99.90
44747;DHT22;30472;49.490;10.972;2023-05-24T12:33:31;17.60;99.90
44747;DHT22;30472;49.490;10.972;2023-05-24T12:35:57;17.30;99.90
44747;DHT22;30472;49.490;10.972;2023-05-24T12:38:24;17.40;99.90
44747;DHT22;30472;49.490;10.972;2023-05-24T12:40:50;17.50;99.90
44747;DHT22;30472;49.490;10.972;2023-05-24T12:43:18;18.10;99.90
44747;DHT22;30472;49.490;10.972;2023-05-24T12:45:43;18.70;99.90
44747;DHT22;30472;49.490;10.972;2023-05-24T12:48:09;18.70;99.90
44747;DHT22;30472;49.490;10.972;2023-05-24T12:50:35;18.80;99.90
44747;DHT22;30472;49.490;10.972;2023-05-24T12:53:00;19.10;99.90
44747;DHT22;30472;49.490;10.972;2023-05-24T12:55:26;18.80;99.90
44747;DHT22;30472;49.490;10.972;2023-05-24T12:57:53;19.10;99.90
44747;DHT22;30472;49.490;10.972;2023-05-24T13:00:20;18.80;99.90
44747;DHT22;30472;49.490;10.972;2023-05-24T13:02:46;19.40;99.90
44747;DHT22;30472;49.490;10.972;2023-05-24T13:05:12;19.70;99.90
44747;DHT22;30472;49.490;10.972;2023-05-24T13:07:39;18.40;99.90
44747;DHT22;30472;49.490;10.972;2023-05-24T13:10:05;17.40;99.90
44747;DHT22;30472;49.490;10.972;2023-05-24T13:12:31;18.00;99.90
44747;DHT22;30472;49.490;10.972;2023-05-24T13:14:57;18.20;99.90
44747;DHT22;30472;49.490;10.972;2023-05-24T13:17:23;17.90;99.90
44747;DHT22;30472;49.490;10.972;2023-05-24T13:19:49;17.40;99.90
44747;DHT22;30472;49.490;10.972;2023-05-24T13:22:15;17.20;99.90
44747;DHT22;30472;49.490;10.972;2023-05-24T13:24:40;17.40;99.90
44747;DHT22;30472;49.490;10.972;2023-05-24T13:27:06;17.60;99.90
44747;DHT22;30472;49.490;10.972;2023-05-24T13:29:32;18.10;99.90
44747;DHT22;30472;49.490;10.972;2023-05-24T13:31:57;18.90;99.90
44747;DHT22;30472;49.490;10.972;2023-05-24T13:34:23;18.70;99.90
44747;DHT22;30472;49.490;10.972;2023-05-24T13:36:50;19.10;99.90
44747;DHT22;30472;49.490;10.972;2023-05-24T13:39:17;19.70;99.90
44747;DHT22;30472;49.490;10.972;2023-05-24T13:41:44;18.90;99.90
44747;DHT22;30472;49.490;10.972;2023-05-24T13:44:11;18.90;99.90
44747;DHT22;30472;49.490;10.972;2023-05-24T13:46:37;18.60;99.90
44747;DHT22;30472;49.490;10.972;2023-05-24T13:49:03;18.60;99.90
44747;DHT22;30472;49.490;10.972;2023-05-24T13:51:29;19.20;99.90
44747;DHT22;30472;49.490;10.972;2023-05-24T13:53:55;19.80;99.90
44747;DHT22;30472;49.490;10.972;2023-05-24T13:56:21;19.90;99.90
44747;DHT22;30472;49.490;10.972;2023-05-24T13:58:48;20.00;99.90
44747;DHT22;30472;49.490;10.972;2023-05-24T14:01:14;19.80;99.90
44747;DHT22;30472;49.490;10.972;2023-05-24T14:03:40;19.40;99.90
44747;DHT22;30472;49.490;10.972;2023-05-24T14:06:06;18.50;99.90
44747;DHT22;30472;49.490;10.972;2023-05-24T14:08:32;18.50;99.90
44747;DHT22;30472;49.490;10.972;2023-05-24T14:10:58;18.20;99.90
44747;DHT22;30472;49.490;10.972;2023-05-24T14:13:23;18.10;99.90
44747;DHT22;30472;49.490;10.972;2023-05-24T14:15:49;18.00;99.90
44747;DHT22;30472;49.490;10.972;2023-05-24T14:18:15;18.10;99.90
44747;DHT22;30472;49.490;10.972;2023-05-24T14:20:40;17.80;99.90
44747;DHT22;30472;49.490;10.972;2023-05-24T14:23:07;17.60;99.90
44747;DHT22;30472;49.490;10.972;2023-05-24T14:25:32;17.70;99.90
44747;DHT22;30472;49.490;10.972;2023-05-24T14:27:58;17.60;99.90
44747;DHT22;30472;49.490;10.972;2023-05-24T14:30:25;17.70;99.90
44747;DHT22;30472;49.490;10.972;2023-05-24T14:32:50;17.80;99.90
44747;DHT22;30472;49.490;10.972;2023-05-24T14:35:16;17.80;99.90
44747;DHT22;30472;49.490;10.972;2023-05-24T14:37:42;17.60;99.90
44747;DHT22;30472;49.490;10.972;2023-05-24T14:40:08;17.60;99.90
44747;DHT22;30472;49.490;10.972;2023-05-24T14:42:34;17.80;99.90
44747;DHT22;30472;49.490;10.972;2023-05-24T14:45:00;17.90;99.90
44747;DHT22;30472;49.490;10.972;2023-05-24T14:47:26;17.80;99.90
44747;DHT22;30472;49.490;10.972;2023-05-24T14:49:52;17.60;99.90
44747;DHT22;30472;49.490;10.972;2023-05-24T14:52:18;17.80;99.90
44747;DHT22;30472;49.490;10.972;2023-05-24T14:54:44;18.20;99.90
44747;DHT22;30472;49.490;10.972;2023-05-24T14:57:10;18.10;99.90
44747;DHT22;30472;49.490;10.972;2023-05-24T14:59:36;18.20;99.90
44747;DHT22;30472;49.490;10.972;2023-05-24T15:02:02;18.50;99.90
44747;DHT22;30472;49.490;10.972;2023-05-24T15:04:27;18.30;99.90
44747;DHT22;30472;49.490;10.972;2023-05-24T15:06:53;18.30;99.90
44747;DHT22;30472;49.490;10.972;2023-05-24T15:09:18;18.20;99.90
44747;DHT22;30472;49.490;10.972;2023-05-24T15:11:44;18.10;99.90
44747;DHT22;30472;49.490;10.972;2023-05-24T15:14:09;17.90;99.90
44747;DHT22;30472;49.490;10.972;2023-05-24T15:16:35;17.90;99.90
44747;DHT22;30472;49.490;10.972;2023-05-24T15:19:01;17.50;99.90
44747;DHT22;30472;49.490;10.972;2023-05-24T15:21:27;17.10;99.90